createdAt,value
2023-01-12T00:01:57.599Z,86.21
2023-01-12T00:04:25.253Z,85.92
2023-01-12T00:06:52.631Z,86.41
2023-01-12T00:09:19.980Z,86.02
2023-01-12T00:11:47.307Z,84.94
2023-01-12T00:14:15.044Z,83.95
2023-01-12T00:16:42.718Z,83.95
2023-01-12T00:19:11.587Z,83.18
2023-01-12T00:22:06.195Z,83.94
2023-01-12T00:24:37.328Z,86.45
2023-01-12T00:27:09.881Z,87.86
2023-01-12T00:29:37.706Z,89.27
2023-01-12T00:32:06.072Z,89.00
2023-01-12T00:34:33.964Z,86.44
2023-01-12T00:37:02.230Z,86.79
2023-01-12T00:39:29.555Z,85.51
2023-01-12T00:42:15.543Z,84.49
2023-01-12T00:45:01.472Z,85.42
2023-01-12T00:47:28.815Z,87.06
2023-01-12T00:49:56.204Z,87.15
2023-01-12T00:52:31.765Z,89.50
2023-01-12T00:55:00.022Z,91.14
2023-01-12T00:57:28.352Z,89.96
2023-01-12T00:59:58.121Z,92.44
2023-01-12T01:02:27.553Z,90.21
2023-01-12T01:04:55.043Z,91.40
2023-01-12T01:07:22.511Z,92.22
2023-01-12T01:09:50.291Z,90.01
2023-01-12T01:12:17.705Z,87.62
2023-01-12T01:14:46.332Z,84.34
2023-01-12T01:17:13.673Z,85.68
2023-01-12T01:19:40.979Z,84.99
2023-01-12T01:22:08.347Z,85.30
2023-01-12T01:24:35.632Z,86.20
2023-01-12T01:27:03.171Z,89.38
2023-01-12T01:29:30.443Z,88.61
2023-01-12T01:31:57.905Z,90.51
2023-01-12T01:34:25.247Z,92.67
2023-01-12T01:36:52.703Z,92.67
2023-01-12T01:39:20.021Z,93.05
2023-01-12T01:41:48.209Z,94.30
2023-01-12T01:44:30.929Z,93.98
2023-01-12T01:47:11.308Z,96.04
2023-01-12T01:49:54.907Z,96.08
2023-01-12T01:52:36.723Z,94.50
2023-01-12T01:55:11.254Z,91.10
2023-01-12T01:57:46.107Z,91.11
2023-01-12T02:00:13.918Z,92.21
2023-01-12T02:02:43.891Z,90.50
2023-01-12T02:05:11.829Z,90.50
2023-01-12T02:07:39.299Z,90.99
2023-01-12T02:10:06.930Z,92.50
2023-01-12T02:12:52.838Z,92.82
2023-01-12T02:15:43.352Z,94.32
2023-01-12T02:18:13.763Z,93.71
2023-01-12T02:20:48.584Z,93.96
2023-01-12T02:23:30.740Z,94.14
2023-01-12T02:26:06.902Z,94.81
2023-01-12T02:29:11.851Z,94.71
2023-01-12T02:31:59.051Z,94.96
2023-01-12T02:34:32.567Z,94.94
2023-01-12T02:37:07.746Z,94.39
2023-01-12T02:39:50.474Z,93.93
2023-01-12T02:42:41.283Z,94.22
2023-01-12T02:45:21.121Z,94.92
2023-01-12T02:48:15.925Z,95.70
2023-01-12T02:51:11.248Z,96.13
2023-01-12T02:53:43.548Z,96.37
2023-01-12T02:56:13.723Z,98.35
2023-01-12T02:58:47.136Z,98.65
2023-01-12T03:01:16.928Z,97.17
2023-01-12T03:03:45.182Z,97.42
2023-01-12T03:06:17.498Z,97.73
2023-01-12T03:08:47.993Z,95.61
2023-01-12T03:11:20.680Z,92.39
2023-01-12T03:13:52.248Z,91.86
2023-01-12T03:16:27.172Z,90.76
2023-01-12T03:19:04.371Z,91.32
2023-01-12T03:21:46.735Z,91.23
2023-01-12T03:24:23.358Z,90.39
2023-01-12T03:26:55.310Z,89.32
2023-01-12T03:29:27.956Z,88.93
2023-01-12T03:31:56.149Z,89.20
2023-01-12T03:34:23.970Z,89.59
2023-01-12T03:37:21.955Z,89.46
2023-01-12T03:40:17.376Z,91.54
2023-01-12T03:42:55.781Z,93.84
2023-01-12T03:45:41.215Z,93.20
2023-01-12T03:48:27.000Z,92.90
2023-01-12T03:51:15.244Z,91.35
2023-01-12T03:53:45.266Z,90.74
2023-01-12T03:56:14.243Z,90.07
2023-01-12T03:58:42.122Z,89.20
2023-01-12T04:01:09.675Z,89.42
2023-01-12T04:03:37.259Z,89.99
2023-01-12T04:06:05.222Z,91.48
2023-01-12T04:08:32.656Z,93.32
2023-01-12T04:11:00.362Z,94.45
2023-01-12T04:13:27.836Z,93.64
2023-01-12T04:15:55.229Z,93.40
2023-01-12T04:18:22.680Z,92.82
2023-01-12T04:20:50.056Z,92.67
2023-01-12T04:23:17.496Z,92.60
2023-01-12T04:25:44.882Z,93.11
2023-01-12T04:28:12.362Z,94.95
2023-01-12T04:30:39.789Z,95.39
2023-01-12T04:33:08.282Z,95.19
2023-01-12T04:35:35.751Z,96.43
2023-01-12T04:38:07.812Z,95.11
2023-01-12T04:40:35.616Z,93.93
2023-01-12T04:43:07.325Z,93.07
2023-01-12T04:45:36.324Z,92.69
2023-01-12T04:48:10.319Z,93.61
2023-01-12T04:50:38.922Z,91.73
2023-01-12T04:53:09.239Z,90.33
2023-01-12T04:55:38.456Z,91.04
2023-01-12T04:58:06.496Z,91.08
2023-01-12T05:00:34.692Z,90.91
2023-01-12T05:03:03.448Z,92.65
2023-01-12T05:05:32.589Z,93.42
2023-01-12T05:08:19.997Z,92.99
2023-01-12T05:10:51.428Z,92.15
2023-01-12T05:13:19.445Z,93.09
2023-01-12T05:15:46.981Z,94.60
2023-01-12T05:18:14.486Z,95.01
2023-01-12T05:20:42.267Z,95.09
2023-01-12T05:23:09.704Z,94.84
2023-01-12T05:25:37.313Z,93.94
2023-01-12T05:28:05.090Z,91.62
2023-01-12T05:30:32.546Z,93.47
2023-01-12T05:33:00.065Z,93.61
2023-01-12T05:35:27.450Z,94.33
2023-01-12T05:37:56.719Z,96.09
2023-01-12T05:40:24.874Z,94.97
2023-01-12T05:43:10.762Z,95.21
2023-01-12T05:45:38.168Z,96.51
2023-01-12T05:48:06.129Z,97.41
2023-01-12T05:50:33.585Z,96.88
2023-01-12T05:53:10.585Z,96.91
2023-01-12T05:55:38.687Z,95.55
2023-01-12T05:58:06.281Z,97.57
2023-01-12T06:00:33.772Z,98.03
2023-01-12T06:03:02.973Z,98.19
2023-01-12T06:05:30.428Z,98.35
2023-01-12T06:07:59.101Z,99.71
2023-01-12T06:10:26.743Z,100.00
2023-01-12T06:13:12.598Z,100.00
2023-01-12T06:15:40.162Z,99.78
2023-01-12T06:18:07.586Z,100.00
2023-01-12T06:20:35.046Z,99.02
2023-01-12T06:23:04.977Z,100.00
2023-01-12T06:25:32.711Z,100.00
2023-01-12T06:28:00.314Z,100.00
2023-01-12T06:30:27.806Z,100.00
2023-01-12T06:32:55.324Z,100.00
2023-01-12T06:35:22.797Z,97.35
2023-01-12T06:37:55.741Z,100.00
2023-01-12T06:40:23.197Z,100.00
2023-01-12T06:42:50.873Z,99.56
2023-01-12T06:45:18.427Z,97.94
2023-01-12T06:47:52.389Z,95.30
2023-01-12T06:50:19.959Z,95.26
2023-01-12T06:52:47.581Z,96.40
2023-01-12T06:55:15.281Z,96.19
2023-01-12T06:57:42.796Z,96.68
2023-01-12T07:00:13.203Z,95.97
2023-01-12T07:02:40.758Z,95.70
2023-01-12T07:05:08.661Z,96.70
2023-01-12T07:07:39.273Z,95.07
2023-01-12T07:10:08.134Z,93.85
2023-01-12T07:12:35.933Z,94.83
2023-01-12T07:15:04.065Z,94.60
2023-01-12T07:17:31.996Z,92.92
2023-01-12T07:19:59.486Z,87.99
2023-01-12T07:22:30.431Z,83.23
2023-01-12T07:24:58.045Z,82.56
2023-01-12T07:27:25.538Z,83.48
2023-01-12T07:29:52.985Z,83.00
2023-01-12T07:32:20.377Z,84.16
2023-01-12T07:34:48.066Z,84.41
2023-01-12T07:37:15.485Z,86.73
2023-01-12T07:39:43.023Z,85.60
2023-01-12T07:42:25.604Z,83.03
2023-01-12T07:44:53.545Z,83.08
2023-01-12T07:47:21.050Z,83.29
2023-01-12T07:49:48.596Z,84.64
2023-01-12T07:52:16.151Z,83.73
2023-01-12T07:54:43.736Z,82.28
2023-01-12T07:57:11.693Z,80.75
2023-01-12T07:59:39.601Z,79.35
2023-01-12T08:02:07.269Z,79.18
2023-01-12T08:04:34.942Z,79.88
2023-01-12T08:07:02.442Z,80.64
2023-01-12T08:09:30.027Z,81.38
2023-01-12T08:11:57.441Z,83.10
2023-01-12T08:14:33.282Z,82.88
2023-01-12T08:17:02.296Z,84.99
2023-01-12T08:19:38.715Z,86.20
2023-01-12T08:22:12.939Z,84.51
2023-01-12T08:24:47.525Z,83.09
2023-01-12T08:27:18.724Z,87.32
2023-01-12T08:29:51.522Z,91.20
2023-01-12T08:32:19.464Z,90.96
2023-01-12T08:34:50.444Z,89.61
2023-01-12T08:37:21.658Z,90.61
2023-01-12T08:39:50.576Z,89.90
2023-01-12T08:42:19.149Z,88.90
2023-01-12T08:44:46.792Z,87.16
2023-01-12T08:47:27.081Z,85.22
2023-01-12T08:49:55.420Z,88.92
2023-01-12T08:52:41.503Z,88.97
2023-01-12T08:55:11.254Z,90.51
2023-01-12T08:57:38.807Z,91.27
2023-01-12T09:00:07.085Z,90.77
2023-01-12T09:02:34.694Z,91.45
2023-01-12T09:05:02.310Z,89.97
2023-01-12T09:07:32.020Z,89.77
2023-01-12T09:09:59.506Z,88.66
2023-01-12T09:12:28.385Z,91.40
2023-01-12T09:14:55.975Z,89.55
2023-01-12T09:17:23.512Z,88.21
2023-01-12T09:19:51.631Z,88.53
2023-01-12T09:22:19.114Z,86.84
2023-01-12T09:24:46.688Z,89.17
2023-01-12T09:27:14.137Z,89.70
2023-01-12T09:29:41.686Z,86.00
2023-01-12T09:32:09.841Z,88.46
2023-01-12T09:34:37.466Z,90.29
2023-01-12T09:37:04.899Z,89.49
2023-01-12T09:39:32.389Z,88.48
2023-01-12T09:42:18.344Z,87.35
2023-01-12T09:45:09.893Z,85.73
2023-01-12T09:48:01.291Z,88.33
2023-01-12T09:50:42.376Z,86.25
2023-01-12T09:53:19.441Z,87.55
2023-01-12T09:56:02.845Z,86.28
2023-01-12T09:59:07.933Z,82.58
2023-01-12T10:01:36.910Z,83.73
2023-01-12T10:04:23.122Z,84.84
2023-01-12T10:06:51.149Z,83.91
2023-01-12T10:09:20.287Z,80.38
2023-01-12T10:12:15.651Z,81.27
2023-01-12T10:15:11.054Z,81.72
2023-01-12T10:17:52.011Z,79.73
2023-01-12T10:20:40.504Z,79.33
2023-01-12T10:23:11.235Z,78.86
2023-01-12T10:25:48.741Z,77.76
2023-01-12T10:28:29.971Z,76.30
2023-01-12T10:30:58.404Z,76.56
2023-01-12T10:33:28.794Z,77.66
2023-01-12T10:35:56.203Z,78.48
2023-01-12T10:38:34.798Z,78.93
2023-01-12T10:41:11.055Z,77.87
2023-01-12T10:43:40.545Z,77.67
2023-01-12T10:46:22.519Z,79.53
2023-01-12T10:48:54.267Z,80.74
2023-01-12T10:51:26.295Z,79.63
2023-01-12T10:53:59.024Z,83.21
2023-01-12T10:56:31.573Z,82.95
2023-01-12T10:59:02.066Z,80.64
2023-01-12T11:02:08.896Z,77.06
2023-01-12T11:04:41.466Z,77.22
2023-01-12T11:07:08.953Z,79.69
2023-01-12T11:09:37.214Z,78.86
2023-01-12T11:12:32.704Z,76.31
2023-01-12T11:15:16.940Z,77.84
2023-01-12T11:18:03.999Z,78.83
2023-01-12T11:20:44.412Z,79.67
2023-01-12T11:23:22.578Z,82.47
2023-01-12T11:25:52.576Z,79.86
2023-01-12T11:28:52.268Z,81.00
2023-01-12T11:31:28.515Z,80.46
2023-01-12T11:34:03.657Z,79.91
2023-01-12T11:36:59.453Z,78.24
2023-01-12T11:39:30.004Z,79.43
2023-01-12T11:42:20.912Z,80.87
2023-01-12T11:45:05.225Z,80.44
2023-01-12T11:47:36.830Z,78.50
2023-01-12T11:50:14.253Z,78.68
2023-01-12T11:52:42.608Z,80.13
2023-01-12T11:55:15.871Z,81.17
2023-01-12T11:58:08.284Z,82.05
2023-01-12T12:01:04.868Z,82.04
2023-01-12T12:03:35.436Z,83.40
2023-01-12T12:06:15.463Z,83.83
2023-01-12T12:08:42.847Z,84.07
2023-01-12T12:11:13.524Z,85.35
2023-01-12T12:13:56.310Z,85.34
2023-01-12T12:16:36.570Z,85.89
2023-01-12T12:19:07.195Z,86.50
2023-01-12T12:21:54.235Z,87.20
2023-01-12T12:25:09.284Z,86.76
2023-01-12T12:28:09.461Z,86.62
2023-01-12T12:30:48.368Z,85.85
2023-01-12T12:33:58.155Z,84.37
2023-01-12T12:36:39.484Z,81.59
2023-01-12T12:39:22.048Z,81.22
2023-01-12T12:42:24.160Z,81.42
2023-01-12T12:45:25.557Z,81.37
2023-01-12T12:48:06.194Z,80.36
2023-01-12T12:50:51.470Z,79.74
2023-01-12T12:53:35.951Z,79.86
2023-01-12T12:56:16.400Z,81.32
2023-01-12T12:58:48.454Z,81.12
2023-01-12T13:01:25.397Z,81.00
2023-01-12T13:03:58.754Z,79.37
2023-01-12T13:06:33.936Z,78.35
2023-01-12T13:09:25.311Z,79.19
2023-01-12T13:11:54.296Z,80.64
2023-01-12T13:14:28.114Z,78.69
2023-01-12T13:17:23.831Z,78.45
2023-01-12T13:20:24.684Z,78.78
2023-01-12T13:22:53.267Z,78.02
2023-01-12T13:25:20.795Z,77.59
2023-01-12T13:28:00.966Z,76.76
2023-01-12T13:30:28.459Z,76.12
2023-01-12T13:33:17.190Z,76.03
2023-01-12T13:35:45.106Z,76.26
2023-01-12T13:38:37.452Z,76.05
2023-01-12T13:41:50.330Z,74.26
2023-01-12T13:44:35.191Z,73.30
2023-01-12T13:47:10.329Z,73.48
2023-01-12T13:49:53.176Z,73.14
2023-01-12T13:52:36.074Z,72.74
2023-01-12T13:55:17.688Z,73.78
2023-01-12T13:58:20.007Z,73.40
2023-01-12T14:00:55.480Z,72.23
2023-01-12T14:03:53.969Z,71.73
2023-01-12T14:06:37.978Z,70.94
2023-01-12T14:09:20.928Z,70.74
2023-01-12T14:12:07.805Z,70.17
2023-01-12T14:15:14.293Z,69.06
2023-01-12T14:17:57.963Z,67.49
2023-01-12T14:20:28.418Z,67.43
2023-01-12T14:23:27.996Z,65.80
2023-01-12T14:26:10.681Z,65.93
2023-01-12T14:28:43.364Z,65.03
2023-01-12T14:31:19.478Z,65.87
2023-01-12T14:33:56.464Z,66.65
2023-01-12T14:36:50.264Z,66.58
2023-01-12T14:39:24.017Z,66.72
2023-01-12T14:42:12.866Z,68.37
2023-01-12T14:45:08.403Z,68.73
2023-01-12T14:47:36.089Z,68.77
2023-01-12T14:50:12.600Z,69.16
2023-01-12T14:52:45.777Z,69.67
2023-01-12T14:55:17.668Z,69.56
2023-01-12T14:57:54.885Z,70.48
2023-01-12T15:00:28.047Z,71.23
2023-01-12T15:02:57.681Z,71.57
2023-01-12T15:05:27.553Z,72.02
2023-01-12T15:08:22.519Z,72.91
2023-01-12T15:11:28.473Z,73.55
2023-01-12T15:13:58.193Z,73.78
2023-01-12T15:16:44.417Z,74.37
2023-01-12T15:19:30.470Z,74.29
2023-01-12T15:22:18.054Z,74.34
2023-01-12T15:25:04.161Z,75.05
2023-01-12T15:27:32.108Z,75.22
2023-01-12T15:29:59.680Z,75.93
2023-01-12T15:32:52.120Z,77.23
2023-01-12T15:35:23.770Z,77.46
2023-01-12T15:37:54.479Z,78.58
2023-01-12T15:40:22.941Z,79.62
2023-01-12T15:42:53.044Z,80.59
2023-01-12T15:45:34.620Z,80.92
2023-01-12T15:48:03.070Z,81.69
2023-01-12T15:50:31.489Z,82.94
2023-01-12T15:53:02.098Z,83.94
2023-01-12T15:55:36.046Z,84.22
2023-01-12T15:58:03.628Z,85.56
2023-01-12T16:00:31.265Z,85.77
2023-01-12T16:02:58.660Z,85.84
2023-01-12T16:05:29.106Z,86.16
2023-01-12T16:07:56.522Z,86.25
2023-01-12T16:10:24.146Z,87.26
2023-01-12T16:12:51.584Z,87.85
2023-01-12T16:15:25.091Z,88.18
2023-01-12T16:17:52.574Z,89.08
2023-01-12T16:20:20.695Z,92.36
2023-01-12T16:22:52.178Z,93.15
2023-01-12T16:25:20.769Z,93.41
2023-01-12T16:27:48.226Z,92.86
2023-01-12T16:30:15.983Z,93.28
2023-01-12T16:32:46.475Z,93.83
2023-01-12T16:35:15.746Z,94.21
2023-01-12T16:37:44.632Z,96.10
2023-01-12T16:40:12.753Z,96.24
2023-01-12T16:42:40.237Z,96.31
2023-01-12T16:45:08.125Z,94.69
2023-01-12T16:47:35.668Z,93.49
2023-01-12T16:50:03.870Z,92.46
2023-01-12T16:52:31.271Z,92.56
2023-01-12T16:54:58.663Z,92.79
2023-01-12T16:57:26.177Z,92.22
2023-01-12T16:59:53.529Z,92.09
2023-01-12T17:02:21.513Z,92.15
2023-01-12T17:04:52.328Z,93.21
2023-01-12T17:07:20.393Z,93.73
2023-01-12T17:09:48.582Z,93.66
2023-01-12T17:12:16.710Z,94.45
2023-01-12T17:14:44.865Z,94.48
2023-01-12T17:17:12.961Z,95.49
2023-01-12T17:19:43.957Z,96.53
2023-01-12T17:22:12.391Z,96.36
2023-01-12T17:24:41.205Z,97.70
2023-01-12T17:27:10.179Z,97.39
2023-01-12T17:29:37.806Z,97.02
2023-01-12T17:32:08.016Z,96.19
2023-01-12T17:34:39.868Z,94.68
2023-01-12T17:37:10.255Z,95.15
2023-01-12T17:39:39.978Z,95.60
2023-01-12T17:42:26.002Z,95.58
2023-01-12T17:44:53.410Z,94.70
2023-01-12T17:47:20.976Z,96.46
2023-01-12T17:49:48.287Z,97.56
2023-01-12T17:52:16.051Z,97.96
2023-01-12T17:54:43.438Z,98.51
2023-01-12T17:57:10.869Z,98.29
2023-01-12T17:59:38.354Z,98.06
2023-01-12T18:02:07.136Z,98.44
2023-01-12T18:04:34.531Z,98.75
2023-01-12T18:07:01.931Z,97.58
2023-01-12T18:09:29.391Z,95.05
2023-01-12T18:11:56.932Z,93.58
2023-01-12T18:14:25.031Z,92.50
2023-01-12T18:16:52.516Z,90.98
2023-01-12T18:19:19.990Z,89.55
2023-01-12T18:21:49.835Z,88.37
2023-01-12T18:24:17.195Z,88.70
2023-01-12T18:26:44.669Z,89.04
2023-01-12T18:29:12.205Z,88.53
2023-01-12T18:31:42.426Z,88.59
2023-01-12T18:34:10.823Z,88.57
2023-01-12T18:36:40.246Z,88.84
2023-01-12T18:39:11.577Z,88.31
2023-01-12T18:42:11.209Z,87.94
2023-01-12T18:44:39.228Z,89.46
2023-01-12T18:47:25.332Z,90.96
2023-01-12T18:49:57.627Z,92.71
2023-01-12T18:52:43.744Z,92.46
2023-01-12T18:55:11.128Z,92.68
2023-01-12T18:57:38.512Z,92.34
2023-01-12T19:00:17.770Z,92.34
2023-01-12T19:02:45.486Z,93.36
2023-01-12T19:05:14.847Z,94.00
2023-01-12T19:08:04.643Z,93.91
2023-01-12T19:10:33.639Z,93.50
2023-01-12T19:13:19.514Z,94.32
2023-01-12T19:16:05.673Z,94.47
2023-01-12T19:18:35.404Z,94.19
2023-01-12T19:21:27.614Z,94.13
2023-01-12T19:24:13.627Z,93.80
2023-01-12T19:26:59.708Z,95.83
2023-01-12T19:29:27.080Z,94.44
2023-01-12T19:31:54.517Z,93.98
2023-01-12T19:34:24.746Z,94.70
2023-01-12T19:36:52.909Z,95.47
2023-01-12T19:39:28.670Z,96.39
2023-01-12T19:42:14.792Z,96.52
2023-01-12T19:44:42.160Z,96.34
2023-01-12T19:47:09.549Z,95.50
2023-01-12T19:49:37.023Z,94.03
2023-01-12T19:52:04.487Z,94.75
2023-01-12T19:54:31.994Z,95.37
2023-01-12T19:56:59.398Z,96.29
2023-01-12T19:59:27.615Z,96.77
2023-01-12T20:01:55.105Z,96.32
2023-01-12T20:04:22.576Z,95.56
2023-01-12T20:06:53.173Z,94.96
2023-01-12T20:09:20.675Z,94.56
2023-01-12T20:11:54.415Z,93.77
2023-01-12T20:14:22.166Z,93.09
2023-01-12T20:16:49.535Z,92.38
2023-01-12T20:19:19.416Z,92.91
2023-01-12T20:21:47.563Z,93.47
2023-01-12T20:24:15.577Z,92.81
2023-01-12T20:26:43.003Z,92.19
2023-01-12T20:29:10.433Z,91.98
2023-01-12T20:31:37.756Z,94.12
2023-01-12T20:34:05.198Z,94.39
2023-01-12T20:36:33.187Z,94.43
2023-01-12T20:39:01.360Z,95.41
2023-01-12T20:41:30.061Z,97.06
2023-01-12T20:43:57.785Z,97.69
2023-01-12T20:46:26.248Z,97.47
2023-01-12T20:48:53.744Z,97.05
2023-01-12T20:51:21.055Z,96.16
2023-01-12T20:53:48.429Z,97.02
2023-01-12T20:56:15.771Z,99.38
2023-01-12T20:58:44.910Z,98.36
2023-01-12T21:01:15.695Z,98.50
2023-01-12T21:03:44.941Z,98.05
2023-01-12T21:06:18.058Z,97.84
2023-01-12T21:08:46.942Z,99.07
2023-01-12T21:11:16.940Z,98.59
2023-01-12T21:13:45.346Z,99.00
2023-01-12T21:16:16.284Z,100.00
2023-01-12T21:18:44.847Z,100.00
2023-01-12T21:21:12.871Z,100.00
2023-01-12T21:23:40.333Z,100.00
2023-01-12T21:26:08.279Z,100.00
2023-01-12T21:28:40.302Z,100.00
2023-01-12T21:31:08.755Z,100.00
2023-01-12T21:33:36.302Z,100.00
2023-01-12T21:36:04.195Z,100.00
2023-01-12T21:38:32.385Z,100.00
2023-01-12T21:41:04.446Z,100.00
2023-01-12T21:43:33.417Z,100.00
2023-01-12T21:46:09.524Z,100.00
2023-01-12T21:48:36.941Z,100.00
2023-01-12T21:51:06.449Z,100.00
2023-01-12T21:53:34.035Z,100.00
2023-01-12T21:56:04.727Z,100.00
2023-01-12T21:58:34.700Z,100.00
2023-01-12T22:01:11.042Z,100.00
2023-01-12T22:03:38.941Z,100.00
2023-01-12T22:06:12.592Z,100.00
2023-01-12T22:08:41.221Z,100.00
2023-01-12T22:11:14.336Z,100.00
2023-01-12T22:13:43.528Z,100.00
2023-01-12T22:16:13.695Z,100.00
2023-01-12T22:18:46.279Z,100.00
2023-01-12T22:21:13.903Z,100.00
2023-01-12T22:23:41.300Z,100.00
2023-01-12T22:26:11.070Z,100.00
2023-01-12T22:28:40.804Z,100.00
2023-01-12T22:31:14.080Z,100.00
2023-01-12T22:33:45.383Z,100.00
2023-01-12T22:36:13.173Z,100.00
2023-01-12T22:38:42.087Z,100.00
2023-01-12T22:41:12.222Z,100.00
2023-01-12T22:43:42.921Z,100.00
2023-01-12T22:46:24.066Z,100.00
2023-01-12T22:48:56.648Z,100.00
2023-01-12T22:51:26.029Z,100.00
2023-01-12T22:53:54.332Z,100.00
2023-01-12T22:56:22.816Z,100.00
2023-01-12T22:58:52.420Z,100.00
2023-01-12T23:01:21.869Z,100.00
2023-01-12T23:03:54.348Z,100.00
2023-01-12T23:06:23.471Z,100.00
2023-01-12T23:08:52.060Z,100.00
2023-01-12T23:11:22.277Z,100.00
2023-01-12T23:13:50.738Z,100.00
2023-01-12T23:16:19.517Z,100.00
2023-01-12T23:18:50.018Z,100.00
2023-01-12T23:21:21.500Z,100.00
2023-01-12T23:23:54.566Z,100.00
2023-01-12T23:26:28.620Z,100.00
2023-01-12T23:29:00.312Z,100.00
2023-01-12T23:31:30.519Z,100.00
2023-01-12T23:33:58.165Z,100.00
2023-01-12T23:36:28.305Z,100.00
2023-01-12T23:38:58.501Z,100.00
2023-01-12T23:41:28.087Z,100.00
2023-01-12T23:43:57.877Z,100.00
2023-01-12T23:46:26.662Z,100.00
2023-01-12T23:48:56.130Z,100.00
2023-01-12T23:51:25.844Z,100.00
2023-01-12T23:53:54.483Z,100.00
2023-01-12T23:56:23.635Z,100.00
2023-01-12T23:58:51.023Z,100.00
